Time;durP1;ratioP1;P1;durP2;ratioP2;P2;SDS_P1;SDS_P2;PMS_P1;PMS_P2;Temp;Humidity;BMP_temperature;BMP_pressure;BME280_temperature;BME280_humidity;BME280_pressure;Samples;Min_cycle;Max_cycle;Signal;HPM_P1;HPM_P2
2021/08/19 00:02:00;;;;;;;3.55;3.25;;;22.40;99.90;;;;;;5030782;28;20476;-71
2021/08/19 00:04:26;;;;;;;5.70;3.45;;;22.40;99.90;;;;;;5031253;28;20036;-74
2021/08/19 00:06:52;;;;;;;5.90;3.70;;;22.40;99.90;;;;;;5032849;28;20025;-72
2021/08/19 00:09:17;;;;;;;5.18;3.22;;;22.40;99.90;;;;;;5024429;28;20022;-71
2021/08/19 00:11:43;;;;;;;4.68;3.17;;;22.40;99.90;;;;;;5029050;28;20025;-71
2021/08/19 00:14:09;;;;;;;5.50;4.05;;;22.40;99.90;;;;;;5028828;28;20029;-72
2021/08/19 00:16:35;;;;;;;8.55;3.33;;;22.40;99.90;;;;;;5028188;28;20079;-73
2021/08/19 00:19:01;;;;;;;4.93;3.50;;;22.40;99.90;;;;;;5030910;28;20120;-71
2021/08/19 00:21:26;;;;;;;3.97;3.33;;;22.40;99.90;;;;;;5030077;28;20041;-71
2021/08/19 00:23:52;;;;;;;10.18;3.40;;;22.30;99.90;;;;;;5033033;28;20075;-72
2021/08/19 00:26:18;;;;;;;4.20;3.47;;;22.20;99.90;;;;;;5024921;28;20468;-71
2021/08/19 00:28:44;;;;;;;4.25;3.65;;;22.30;99.90;;;;;;5027458;28;20487;-71
2021/08/19 00:31:10;;;;;;;3.78;3.33;;;22.20;99.90;;;;;;5030411;28;20040;-72
2021/08/19 00:33:35;;;;;;;6.38;3.20;;;22.30;99.90;;;;;;5030241;28;20052;-72
2021/08/19 00:36:01;;;;;;;7.30;3.22;;;22.30;99.90;;;;;;5026183;28;20443;-73
2021/08/19 00:38:27;;;;;;;3.42;3.13;;;22.40;99.90;;;;;;5031829;28;20423;-71
2021/08/19 00:40:52;;;;;;;6.88;3.38;;;22.30;99.90;;;;;;5032916;28;20044;-72
2021/08/19 00:43:21;;;;;;;5.85;4.25;;;22.40;99.90;;;;;;5029095;28;20095;-72
2021/08/19 00:45:47;;;;;;;4.50;3.40;;;22.20;99.90;;;;;;5029380;28;20033;-72
2021/08/19 00:48:13;;;;;;;4.45;4.05;;;22.20;99.90;;;;;;5029645;28;20369;-71
2021/08/19 00:50:40;;;;;;;4.18;3.25;;;22.20;99.90;;;;;;5031392;28;20484;-70
2021/08/19 00:53:06;;;;;;;6.65;4.50;;;22.10;99.90;;;;;;5030447;28;20123;-70
2021/08/19 00:55:32;;;;;;;3.72;3.40;;;22.00;99.90;;;;;;5031454;28;20048;-73
2021/08/19 00:57:58;;;;;;;3.65;3.30;;;22.00;99.90;;;;;;5023623;28;20037;-72
2021/08/19 01:00:24;;;;;;;7.60;3.80;;;22.00;99.90;;;;;;5022526;28;20033;-71
2021/08/19 01:02:53;;;;;;;5.30;3.55;;;22.00;99.90;;;;;;5025413;28;20022;-71
2021/08/19 01:05:26;;;;;;;4.75;4.35;;;22.00;99.90;;;;;;5032346;28;20040;-71
2021/08/19 01:07:52;;;;;;;5.78;4.03;;;22.00;99.90;;;;;;5029840;28;20031;-72
2021/08/19 01:10:18;;;;;;;4.25;3.50;;;22.00;99.90;;;;;;5027692;28;20724;-73
2021/08/19 01:12:45;;;;;;;4.18;3.58;;;22.00;99.90;;;;;;5028440;28;20072;-72
2021/08/19 01:15:12;;;;;;;8.07;3.47;;;22.00;99.90;;;;;;5023842;28;20025;-71
2021/08/19 01:17:38;;;;;;;4.72;3.97;;;22.00;99.90;;;;;;5012339;28;20034;-71
2021/08/19 01:20:05;;;;;;;5.40;3.55;;;22.00;99.90;;;;;;5028652;28;20044;-71
2021/08/19 01:22:32;;;;;;;7.35;3.90;;;22.00;99.90;;;;;;5030331;28;20034;-71
2021/08/19 01:24:57;;;;;;;4.18;3.47;;;22.00;99.90;;;;;;5029914;28;20077;-71
2021/08/19 01:27:23;;;;;;;7.80;3.50;;;21.90;99.90;;;;;;5023969;28;20125;-71
2021/08/19 01:29:52;;;;;;;5.22;4.05;;;21.90;99.90;;;;;;5026148;28;20529;-70
2021/08/19 01:32:18;;;;;;;3.72;3.30;;;21.80;99.90;;;;;;5030597;28;20124;-72
2021/08/19 01:34:44;;;;;;;4.53;3.70;;;21.70;99.90;;;;;;5028432;28;20025;-71
2021/08/19 01:37:11;;;;;;;10.52;3.40;;;21.70;99.90;;;;;;5030228;28;20036;-71
2021/08/19 01:39:37;;;;;;;4.93;3.22;;;21.50;99.90;;;;;;5029762;28;20487;-72
2021/08/19 01:42:04;;;;;;;5.18;4.10;;;21.60;99.90;;;;;;5029203;28;20044;-71
2021/08/19 01:44:30;;;;;;;4.22;3.10;;;21.60;99.90;;;;;;5026597;28;20037;-71
2021/08/19 01:47:04;;;;;;;3.97;3.60;;;21.60;99.90;;;;;;5023339;28;20120;-72
2021/08/19 01:49:30;;;;;;;6.28;3.72;;;21.60;99.90;;;;;;5029835;28;20041;-72
2021/08/19 01:51:57;;;;;;;5.43;3.92;;;21.60;99.90;;;;;;5029022;28;20168;-71
2021/08/19 01:54:25;;;;;;;4.78;4.10;;;21.70;99.90;;;;;;5025668;28;20511;-73
2021/08/19 01:56:51;;;;;;;6.47;3.75;;;21.70;99.90;;;;;;5029988;28;20026;-70
2021/08/19 01:59:17;;;;;;;6.63;3.72;;;21.60;99.90;;;;;;5023758;28;20514;-71
2021/08/19 02:01:42;;;;;;;4.90;3.95;;;21.60;99.90;;;;;;5018385;28;20033;-72
2021/08/19 02:04:09;;;;;;;3.97;3.67;;;21.60;99.90;;;;;;5026423;28;20026;-71
2021/08/19 02:06:34;;;;;;;4.05;3.65;;;21.60;99.90;;;;;;5026276;28;20028;-71
2021/08/19 02:09:00;;;;;;;5.88;3.65;;;21.60;99.90;;;;;;5029003;28;20034;-72
2021/08/19 02:11:26;;;;;;;7.03;4.93;;;21.40;99.90;;;;;;5027372;28;20029;-70
2021/08/19 02:13:52;;;;;;;4.78;3.95;;;21.50;99.90;;;;;;5025501;28;20034;-71
2021/08/19 02:16:18;;;;;;;4.78;3.80;;;21.60;99.90;;;;;;5029669;28;20148;-72
2021/08/19 02:18:43;;;;;;;4.13;3.83;;;21.60;99.90;;;;;;5031530;28;20499;-73
2021/08/19 02:21:10;;;;;;;4.22;3.83;;;21.60;99.90;;;;;;5019434;28;20037;-72
2021/08/19 02:23:36;;;;;;;4.53;3.92;;;21.60;99.90;;;;;;5028565;28;20087;-72
2021/08/19 02:26:02;;;;;;;4.00;3.50;;;21.70;99.90;;;;;;5021239;28;20053;-72
2021/08/19 02:28:28;;;;;;;4.43;3.75;;;21.70;99.90;;;;;;5030049;28;20037;-72
2021/08/19 02:30:54;;;;;;;4.47;3.38;;;21.70;99.90;;;;;;5027688;28;20047;-73
2021/08/19 02:33:20;;;;;;;3.38;2.63;;;21.70;99.90;;;;;;5028312;28;20022;-72
2021/08/19 02:35:46;;;;;;;4.97;4.22;;;21.70;99.90;;;;;;5024965;28;20034;-73
2021/08/19 02:38:12;;;;;;;4.53;3.17;;;21.60;99.90;;;;;;5024357;28;20025;-72
2021/08/19 02:40:40;;;;;;;5.05;3.60;;;21.60;99.90;;;;;;5021946;28;20028;-73
2021/08/19 02:43:09;;;;;;;5.95;4.63;;;21.50;99.90;;;;;;5021105;28;20498;-72
2021/08/19 02:45:35;;;;;;;5.00;3.55;;;21.50;99.90;;;;;;5021977;28;20076;-71
2021/08/19 02:48:02;;;;;;;6.93;4.20;;;21.50;99.90;;;;;;5027626;28;20059;-71
2021/08/19 02:50:28;;;;;;;4.22;3.63;;;21.40;99.90;;;;;;5025656;28;20036;-71
2021/08/19 02:52:55;;;;;;;6.68;4.55;;;21.40;99.90;;;;;;5028877;28;20033;-71
2021/08/19 02:55:21;;;;;;;5.03;3.97;;;21.40;99.90;;;;;;5028472;28;20025;-70
2021/08/19 02:57:46;;;;;;;9.07;3.85;;;21.40;99.90;;;;;;5027705;28;20498;-72
2021/08/19 03:00:13;;;;;;;5.75;4.40;;;21.40;99.90;;;;;;5020281;28;20033;-71
2021/08/19 03:02:39;;;;;;;4.90;3.72;;;21.40;99.90;;;;;;5027586;28;20022;-71
2021/08/19 03:05:06;;;;;;;8.07;4.28;;;21.40;99.90;;;;;;5027982;28;20040;-71
2021/08/19 03:07:32;;;;;;;4.78;3.15;;;21.40;99.90;;;;;;5030489;28;20035;-71
2021/08/19 03:09:57;;;;;;;4.93;3.35;;;21.30;99.90;;;;;;5025530;28;20025;-72
2021/08/19 03:12:24;;;;;;;4.72;3.13;;;21.30;99.90;;;;;;5020718;28;20434;-71
2021/08/19 03:14:50;;;;;;;5.47;3.97;;;21.30;99.90;;;;;;5027136;28;20014;-72
2021/08/19 03:17:15;;;;;;;3.00;2.80;;;21.30;99.90;;;;;;5028448;28;20488;-72
2021/08/19 03:19:41;;;;;;;4.18;3.78;;;21.40;99.90;;;;;;5036348;28;20018;-72
2021/08/19 03:22:10;;;;;;;4.53;3.28;;;21.40;99.90;;;;;;5028165;28;20506;-72
2021/08/19 03:24:36;;;;;;;4.25;3.78;;;21.40;99.90;;;;;;5026822;28;20028;-72
2021/08/19 03:27:03;;;;;;;4.30;3.13;;;21.40;99.90;;;;;;5028263;28;20078;-72
2021/08/19 03:29:30;;;;;;;4.55;3.22;;;21.40;99.90;;;;;;5020694;28;20109;-72
2021/08/19 03:31:56;;;;;;;7.53;4.07;;;21.40;99.90;;;;;;5027556;28;20045;-72
2021/08/19 03:34:21;;;;;;;7.15;4.05;;;21.40;99.90;;;;;;5027218;28;20116;-73
2021/08/19 03:36:47;;;;;;;4.38;3.47;;;21.30;99.90;;;;;;5027728;28;20080;-73
2021/08/19 03:39:14;;;;;;;6.72;4.28;;;21.30;99.90;;;;;;5030893;28;20014;-73
2021/08/19 03:41:40;;;;;;;6.07;3.72;;;21.30;99.90;;;;;;5029875;28;20044;-73
2021/08/19 03:44:09;;;;;;;8.10;3.80;;;21.30;99.90;;;;;;5030483;28;20033;-73
2021/08/19 03:46:34;;;;;;;4.68;3.20;;;21.30;99.90;;;;;;5028722;28;20033;-73
2021/08/19 03:49:00;;;;;;;6.82;4.30;;;21.30;99.90;;;;;;5028355;28;20117;-72
2021/08/19 03:51:27;;;;;;;3.42;3.13;;;21.40;99.90;;;;;;5032339;28;20184;-73
2021/08/19 03:53:54;;;;;;;4.13;3.15;;;21.40;99.90;;;;;;5033453;28;20025;-71
2021/08/19 03:56:22;;;;;;;8.57;4.07;;;21.30;99.90;;;;;;5027746;28;20026;-71
2021/08/19 03:58:48;;;;;;;4.03;3.63;;;21.30;99.90;;;;;;5028573;28;20310;-71
2021/08/19 04:01:13;;;;;;;5.13;3.85;;;21.30;99.90;;;;;;5026757;28;20022;-73
2021/08/19 04:03:39;;;;;;;6.72;4.20;;;21.20;99.90;;;;;;5029196;28;20480;-73
2021/08/19 04:06:13;;;;;;;3.65;3.33;;;21.10;99.90;;;;;;5020999;28;20124;-73
2021/08/19 04:08:39;;;;;;;4.07;3.28;;;20.90;99.90;;;;;;5021305;28;20037;-72
2021/08/19 04:11:05;;;;;;;6.70;4.15;;;20.70;99.90;;;;;;5025466;28;20029;-73
2021/08/19 04:13:31;;;;;;;4.07;3.33;;;20.60;99.90;;;;;;5029677;28;20026;-74
2021/08/19 04:15:57;;;;;;;6.63;4.57;;;20.50;99.90;;;;;;5020033;28;20041;-70
2021/08/19 04:18:23;;;;;;;4.30;3.33;;;20.40;99.90;;;;;;5027285;28;20026;-71
2021/08/19 04:20:48;;;;;;;4.60;4.15;;;20.40;99.90;;;;;;5023544;28;20102;-72
2021/08/19 04:23:14;;;;;;;4.32;3.50;;;20.30;99.90;;;;;;5028274;28;20438;-72
2021/08/19 04:25:40;;;;;;;4.38;3.63;;;20.30;99.90;;;;;;5024984;28;20029;-71
2021/08/19 04:28:06;;;;;;;4.13;3.72;;;20.50;99.90;;;;;;5019640;28;20034;-70
2021/08/19 04:30:31;;;;;;;5.50;4.15;;;20.60;99.90;;;;;;5020649;28;20108;-71
2021/08/19 04:32:57;;;;;;;11.50;4.45;;;20.60;99.90;;;;;;5030049;28;20056;-70
2021/08/19 04:35:28;;;;;;;5.82;3.50;;;20.60;99.90;;;;;;5025897;28;20037;-73
2021/08/19 04:37:54;;;;;;;4.32;3.05;;;20.60;99.90;;;;;;5031332;28;20018;-71
2021/08/19 04:40:20;;;;;;;6.03;3.40;;;20.70;99.90;;;;;;5023774;28;20033;-71
2021/08/19 04:42:46;;;;;;;6.20;3.53;;;20.70;99.90;;;;;;5025385;28;20396;-72
2021/08/19 04:45:12;;;;;;;3.78;3.28;;;20.70;99.90;;;;;;5027372;28;20431;-72
2021/08/19 04:47:38;;;;;;;6.93;5.15;;;20.70;99.90;;;;;;5027850;28;20550;-72
2021/08/19 04:50:04;;;;;;;5.78;3.47;;;20.70;99.90;;;;;;5027625;28;20025;-71
2021/08/19 04:52:30;;;;;;;4.07;3.55;;;20.70;99.90;;;;;;5031501;28;20479;-70
2021/08/19 04:54:56;;;;;;;3.80;3.40;;;20.70;99.90;;;;;;5029223;28;20038;-71
2021/08/19 04:57:22;;;;;;;5.47;4.93;;;20.80;99.90;;;;;;5023673;28;20021;-71
2021/08/19 04:59:47;;;;;;;8.48;4.30;;;20.80;99.90;;;;;;5029085;28;20138;-71
2021/08/19 05:02:13;;;;;;;6.38;3.50;;;21.00;99.90;;;;;;5026528;28;20039;-74
2021/08/19 05:04:39;;;;;;;5.07;3.03;;;21.20;99.90;;;;;;5033089;28;20029;-71
2021/08/19 05:07:05;;;;;;;5.78;3.78;;;21.30;99.90;;;;;;5028615;28;20065;-70
2021/08/19 05:09:30;;;;;;;7.25;4.20;;;21.40;99.90;;;;;;5026206;28;20034;-70
2021/08/19 05:11:57;;;;;;;10.75;4.03;;;21.50;99.90;;;;;;5027528;28;20033;-71
2021/08/19 05:14:23;;;;;;;5.07;3.50;;;21.50;99.90;;;;;;5029533;28;20045;-72
2021/08/19 05:16:49;;;;;;;8.05;3.65;;;21.70;99.90;;;;;;5025940;28;20030;-72
2021/08/19 05:19:15;;;;;;;14.75;4.90;;;21.90;99.90;;;;;;5030561;28;20032;-71
2021/08/19 05:21:41;;;;;;;10.30;5.90;;;22.10;99.90;;;;;;5018361;28;20180;-72
2021/08/19 05:24:06;;;;;;;8.82;4.38;;;22.30;99.90;;;;;;5031085;28;20075;-72
2021/08/19 05:26:32;;;;;;;11.65;4.78;;;22.50;99.90;;;;;;5026944;28;20053;-72
2021/08/19 05:28:58;;;;;;;9.75;4.90;;;22.60;99.90;;;;;;5028685;28;20454;-71
2021/08/19 05:31:24;;;;;;;7.95;3.95;;;22.60;99.90;;;;;;5026026;28;20047;-70
2021/08/19 05:33:50;;;;;;;7.03;4.65;;;22.70;99.90;;;;;;5031664;28;20013;-69
2021/08/19 05:36:16;;;;;;;3.97;3.45;;;22.70;99.90;;;;;;5028203;28;20022;-69
2021/08/19 05:38:41;;;;;;;8.50;4.15;;;22.70;99.90;;;;;;5027294;28;20051;-69
2021/08/19 05:41:07;;;;;;;7.13;4.13;;;22.80;99.90;;;;;;5028193;28;20250;-69
2021/08/19 05:43:34;;;;;;;4.45;3.80;;;22.90;99.90;;;;;;5026454;28;20097;-69
2021/08/19 05:46:00;;;;;;;8.63;4.70;;;22.90;99.90;;;;;;5023471;28;20426;-69
2021/08/19 05:48:25;;;;;;;5.85;3.97;;;22.90;99.90;;;;;;5017465;28;20128;-69
2021/08/19 05:50:51;;;;;;;5.30;4.53;;;22.90;99.90;;;;;;5021251;28;20022;-69
2021/08/19 05:53:17;;;;;;;4.80;4.25;;;22.90;99.90;;;;;;5029914;28;20083;-69
2021/08/19 05:55:43;;;;;;;5.28;3.90;;;22.90;99.90;;;;;;5030354;28;20076;-68
2021/08/19 05:58:13;;;;;;;6.97;5.65;;;23.00;99.90;;;;;;5024920;28;20392;-69
2021/08/19 06:00:39;;;;;;;7.07;4.15;;;23.00;99.90;;;;;;5022415;28;20097;-69
2021/08/19 06:03:05;;;;;;;3.83;3.40;;;23.00;99.90;;;;;;5016614;28;20551;-70
2021/08/19 06:05:31;;;;;;;6.60;4.20;;;22.90;99.90;;;;;;5031518;28;20068;-70
2021/08/19 06:07:57;;;;;;;5.47;3.60;;;22.90;99.90;;;;;;5029804;28;20198;-70
2021/08/19 06:10:22;;;;;;;3.83;3.30;;;22.90;99.90;;;;;;5012612;28;20018;-71
2021/08/19 06:12:48;;;;;;;4.57;3.90;;;23.00;99.90;;;;;;5024236;28;20064;-70
2021/08/19 06:15:14;;;;;;;6.72;5.38;;;23.10;99.90;;;;;;5011599;28;20026;-68
2021/08/19 06:17:40;;;;;;;4.35;3.63;;;22.90;99.90;;;;;;5021925;28;20392;-66
2021/08/19 06:20:08;;;;;;;5.35;3.72;;;23.00;99.90;;;;;;5030986;28;20018;-67
2021/08/19 06:22:33;;;;;;;5.55;3.50;;;23.10;99.90;;;;;;5015776;28;20126;-67
2021/08/19 06:24:59;;;;;;;5.68;3.88;;;23.20;99.90;;;;;;5011041;28;20174;-68
2021/08/19 06:27:25;;;;;;;4.13;3.38;;;23.00;99.90;;;;;;5010118;28;20037;-67
2021/08/19 06:29:51;;;;;;;4.65;4.03;;;23.20;99.90;;;;;;5021063;28;20039;-67
2021/08/19 06:32:16;;;;;;;3.95;3.13;;;23.50;99.90;;;;;;5018764;28;20400;-66
2021/08/19 06:34:42;;;;;;;6.18;3.53;;;23.30;99.90;;;;;;5011197;28;20523;-66
2021/08/19 06:37:08;;;;;;;6.55;4.00;;;23.40;99.90;;;;;;5011160;28;20057;-67
2021/08/19 06:39:34;;;;;;;5.25;2.80;;;23.50;99.90;;;;;;5009973;28;20548;-68
2021/08/19 06:41:59;;;;;;;3.88;3.28;;;23.60;99.90;;;;;;5009914;28;20109;-68
2021/08/19 06:44:25;;;;;;;4.65;3.63;;;23.70;99.90;;;;;;5011087;28;20108;-68
2021/08/19 06:46:51;;;;;;;5.38;3.25;;;23.70;99.90;;;;;;5011017;28;20029;-68
2021/08/19 06:49:17;;;;;;;7.70;4.03;;;23.80;99.90;;;;;;5010426;28;20535;-68
2021/08/19 06:51:43;;;;;;;5.40;3.28;;;23.80;99.90;;;;;;5011139;28;20484;-68
2021/08/19 06:54:08;;;;;;;5.55;3.47;;;23.80;99.90;;;;;;5009914;28;20060;-68
2021/08/19 06:56:34;;;;;;;5.03;3.53;;;23.90;99.90;;;;;;5009759;28;20542;-67
2021/08/19 06:59:00;;;;;;;5.25;3.70;;;23.90;99.90;;;;;;5011193;28;20095;-67
2021/08/19 07:01:26;;;;;;;6.72;3.78;;;24.00;99.90;;;;;;5011416;28;20399;-67
2021/08/19 07:03:51;;;;;;;4.43;3.85;;;24.00;99.90;;;;;;5011254;28;20026;-67
2021/08/19 07:06:17;;;;;;;3.72;3.20;;;24.10;99.90;;;;;;5011584;28;20026;-68
2021/08/19 07:08:43;;;;;;;4.38;3.10;;;24.20;99.90;;;;;;5011342;28;20377;-67
2021/08/19 07:11:11;;;;;;;6.00;3.42;;;24.20;99.90;;;;;;5010346;28;20567;-66
2021/08/19 07:13:37;;;;;;;3.83;3.13;;;24.20;99.90;;;;;;5014733;28;20093;-68
2021/08/19 07:16:04;;;;;;;6.07;3.90;;;24.30;99.90;;;;;;5014026;28;20037;-68
2021/08/19 07:18:29;;;;;;;3.58;3.28;;;24.40;99.90;;;;;;5014573;28;20040;-66
2021/08/19 07:20:55;;;;;;;5.75;3.83;;;24.50;99.90;;;;;;5010094;28;20403;-67
2021/08/19 07:23:21;;;;;;;7.43;4.10;;;24.80;99.90;;;;;;5009590;28;20428;-67
2021/08/19 07:25:47;;;;;;;5.72;3.30;;;24.90;99.90;;;;;;5010965;28;20033;-68
2021/08/19 07:28:13;;;;;;;3.45;3.15;;;24.90;99.90;;;;;;5010589;28;20373;-68
2021/08/19 07:30:39;;;;;;;4.55;2.55;;;24.90;99.90;;;;;;5009461;28;20118;-68
2021/08/19 07:33:06;;;;;;;5.20;3.58;;;24.90;99.90;;;;;;5009202;28;20467;-66
2021/08/19 07:35:32;;;;;;;5.40;4.10;;;24.90;99.90;;;;;;5010448;28;20033;-67
2021/08/19 07:37:58;;;;;;;4.22;3.83;;;25.00;99.90;;;;;;5010436;28;20373;-67
2021/08/19 07:40:26;;;;;;;5.82;3.22;;;25.00;99.90;;;;;;5010630;28;20033;-67
2021/08/19 07:42:52;;;;;;;3.90;3.60;;;25.20;99.90;;;;;;5010625;28;20053;-68
2021/08/19 07:45:20;;;;;;;7.57;3.88;;;25.10;99.90;;;;;;5010916;28;20435;-68
2021/08/19 07:47:46;;;;;;;3.67;3.30;;;25.20;99.90;;;;;;5009586;28;20339;-68
2021/08/19 07:50:12;;;;;;;4.43;3.85;;;25.20;99.50;;;;;;5009528;28;20380;-68
2021/08/19 07:52:39;;;;;;;4.03;3.58;;;25.20;99.90;;;;;;5010531;28;20029;-68
2021/08/19 07:55:10;;;;;;;2.97;2.75;;;25.30;99.50;;;;;;5010594;28;20480;-67
2021/08/19 07:57:52;;;;;;;4.40;3.43;;;25.30;98.70;;;;;;5010647;28;20157;-67
2021/08/19 08:00:18;;;;;;;;;;;25.50;98.90;;;;;;5011064;28;20030;-67
2021/08/19 08:02:44;;;;;;;4.97;2.70;;;25.60;98.90;;;;;;5012818;28;19992;-67
2021/08/19 08:05:10;;;;;;;3.30;2.50;;;25.70;99.00;;;;;;5014860;28;20594;-67
2021/08/19 08:07:36;;;;;;;6.43;3.33;;;25.60;98.00;;;;;;5012767;28;20124;-67
2021/08/19 08:10:04;;;;;;;3.65;3.35;;;25.60;98.60;;;;;;5014593;28;20109;-67
2021/08/19 08:12:30;;;;;;;3.25;2.95;;;25.80;98.30;;;;;;5012646;28;20033;-67
2021/08/19 08:14:56;;;;;;;3.05;2.75;;;25.90;98.10;;;;;;5014501;28;20018;-67
2021/08/19 08:17:22;;;;;;;4.00;3.08;;;25.90;97.60;;;;;;5014087;28;20397;-67
2021/08/19 08:19:48;;;;;;;11.57;5.82;;;26.00;97.30;;;;;;5013925;28;20119;-67
2021/08/19 08:22:15;;;;;;;4.15;3.13;;;26.00;97.80;;;;;;5012355;28;20033;-68
2021/08/19 08:24:40;;;;;;;2.88;2.60;;;26.10;97.30;;;;;;5013927;28;20480;-68
2021/08/19 08:27:06;;;;;;;3.22;2.92;;;26.20;97.40;;;;;;5013930;28;20030;-67
2021/08/19 08:29:33;;;;;;;5.70;3.92;;;26.20;97.40;;;;;;5013549;28;20030;-67
2021/08/19 08:32:06;;;;;;;4.80;3.50;;;26.30;97.20;;;;;;5013505;28;20022;-67
2021/08/19 08:34:36;;;;;;;6.63;3.80;;;26.40;97.10;;;;;;5014238;28;20105;-67
2021/08/19 08:37:02;;;;;;;6.03;3.40;;;26.50;96.80;;;;;;5012369;28;20109;-68
2021/08/19 08:39:33;;;;;;;2.75;2.55;;;26.50;96.70;;;;;;5012286;28;20054;-67
2021/08/19 08:41:59;;;;;;;5.10;3.25;;;26.50;96.90;;;;;;5013538;28;20026;-66
2021/08/19 08:44:29;;;;;;;3.70;2.90;;;26.50;96.80;;;;;;5013516;28;20084;-67
2021/08/19 08:46:56;;;;;;;3.88;2.63;;;26.60;96.60;;;;;;5012090;28;20038;-68
2021/08/19 08:49:23;;;;;;;5.50;3.08;;;26.60;96.80;;;;;;5013005;28;20061;-68
2021/08/19 08:51:57;;;;;;;5.55;3.35;;;26.60;96.70;;;;;;5013219;28;20076;-67
2021/08/19 08:54:28;;;;;;;3.78;3.38;;;26.60;96.70;;;;;;5013635;28;20029;-67
2021/08/19 08:56:55;;;;;;;6.95;2.65;;;26.70;96.90;;;;;;5013233;28;20381;-67
2021/08/19 08:59:21;;;;;;;3.65;2.60;;;26.90;96.70;;;;;;5011720;28;20084;-67
2021/08/19 09:01:47;;;;;;;4.35;3.40;;;27.00;96.40;;;;;;5011955;28;20026;-67
2021/08/19 09:04:13;;;;;;;4.20;3.35;;;26.90;96.00;;;;;;5012095;28;20034;-68
2021/08/19 09:06:45;;;;;;;3.15;2.85;;;26.80;96.30;;;;;;5013407;28;20030;-67
2021/08/19 09:09:25;;;;;;;3.30;3.00;;;26.90;96.40;;;;;;5011572;28;20518;-67
2021/08/19 09:12:01;;;;;;;4.80;3.08;;;26.90;96.20;;;;;;5012794;28;20045;-67
2021/08/19 09:14:30;;;;;;;5.72;4.55;;;27.10;96.10;;;;;;5012504;28;20201;-67
2021/08/19 09:16:55;;;;;;;3.33;3.03;;;27.10;96.00;;;;;;5012948;28;20022;-67
2021/08/19 09:19:26;;;;;;;2.67;2.40;;;27.20;95.80;;;;;;5012624;28;20306;-67
2021/08/19 09:21:58;;;;;;;3.15;2.65;;;27.20;95.80;;;;;;5012636;28;20037;-67
2021/08/19 09:24:29;;;;;;;3.50;3.20;;;27.20;95.80;;;;;;5012634;28;20033;-67
2021/08/19 09:27:10;;;;;;;4.60;3.27;;;27.20;95.90;;;;;;5012858;28;20492;-67
2021/08/19 09:29:36;;;;;;;2.85;2.55;;;27.20;97.20;;;;;;5012466;28;20029;-68
2021/08/19 09:32:15;;;;;;;6.70;3.45;;;27.30;97.50;;;;;;5010959;28;20034;-68
2021/08/19 09:34:43;;;;;;;4.30;3.08;;;27.30;97.00;;;;;;5012262;28;20025;-68
2021/08/19 09:37:11;;;;;;;7.30;3.45;;;27.30;97.00;;;;;;5012483;28;20026;-69
2021/08/19 09:39:48;;;;;;;5.78;3.55;;;27.00;97.60;;;;;;5011962;28;20030;-67
2021/08/19 09:42:15;;;;;;;6.28;3.13;;;26.90;97.80;;;;;;5012392;28;20057;-67
2021/08/19 09:44:46;;;;;;;3.80;3.30;;;26.80;98.30;;;;;;5010836;28;20435;-68
2021/08/19 09:47:34;;;;;;;4.30;3.33;;;26.90;99.20;;;;;;5010613;28;20392;-68
2021/08/19 09:50:19;;;;;;;3.10;2.58;;;27.10;97.60;;;;;;5012219;28;20041;-68
2021/08/19 09:52:47;;;;;;;4.03;2.85;;;27.20;96.40;;;;;;5011941;28;20030;-68
2021/08/19 09:55:21;;;;;;;4.22;2.13;;;27.10;96.50;;;;;;5010675;28;20022;-68
2021/08/19 09:57:47;;;;;;;3.88;3.17;;;27.10;96.20;;;;;;5010481;28;20105;-68
2021/08/19 10:00:37;;;;;;;4.80;3.00;;;27.20;96.70;;;;;;5010829;28;20038;-68
2021/08/19 10:03:03;;;;;;;4.18;3.78;;;27.10;99.40;;;;;;5012237;28;20495;-68
2021/08/19 10:05:29;;;;;;;3.85;3.45;;;27.10;99.10;;;;;;5010554;28;20030;-68
2021/08/19 10:07:55;;;;;;;5.43;3.22;;;27.10;98.70;;;;;;5010497;28;20034;-67
2021/08/19 10:10:21;;;;;;;3.97;3.67;;;27.00;98.20;;;;;;5012024;28;20038;-68
2021/08/19 10:12:48;;;;;;;3.90;3.00;;;27.00;98.30;;;;;;5010339;28;20037;-69
2021/08/19 10:15:15;;;;;;;3.63;3.22;;;27.00;98.10;;;;;;5010591;28;20034;-69
2021/08/19 10:17:54;;;;;;;5.78;3.30;;;27.10;98.30;;;;;;5011443;28;20022;-67
2021/08/19 10:20:25;;;;;;;7.20;3.63;;;27.20;99.90;;;;;;5010322;28;20112;-67
2021/08/19 10:22:54;;;;;;;5.13;3.47;;;27.00;99.90;;;;;;5011783;28;20022;-67
2021/08/19 10:25:24;;;;;;;4.70;3.55;;;26.90;99.90;;;;;;5009450;28;20040;-67
2021/08/19 10:28:11;;;;;;;3.70;2.92;;;26.80;99.90;;;;;;5010184;28;20092;-67
2021/08/19 10:30:55;;;;;;;3.30;3.00;;;26.60;99.90;;;;;;5011476;28;20125;-68
2021/08/19 10:33:42;;;;;;;4.10;2.28;;;26.70;99.90;;;;;;5010814;28;20026;-68
2021/08/19 10:36:11;;;;;;;4.28;3.60;;;26.70;99.90;;;;;;5011562;28;20544;-68
2021/08/19 10:38:41;;;;;;;3.25;2.58;;;26.70;99.90;;;;;;5011645;28;20088;-68
2021/08/19 10:41:32;;;;;;;4.82;3.78;;;26.70;99.90;;;;;;5011970;28;20540;-68
2021/08/19 10:44:05;;;;;;;5.55;3.42;;;26.70;99.90;;;;;;5011926;28;20037;-67
2021/08/19 10:46:43;;;;;;;4.35;3.63;;;26.80;99.90;;;;;;5010045;28;20026;-68
2021/08/19 10:49:35;;;;;;;4.88;2.88;;;26.90;99.90;;;;;;5010863;28;20160;-67
2021/08/19 10:52:07;;;;;;;3.15;2.85;;;27.10;99.90;;;;;;5010463;28;20476;-70
2021/08/19 10:54:39;;;;;;;9.65;3.72;;;27.20;99.90;;;;;;5010068;28;20032;-70
2021/08/19 10:57:30;;;;;;;5.30;2.95;;;27.30;99.90;;;;;;5011349;28;20484;-70
2021/08/19 11:00:08;;;;;;;4.10;3.40;;;27.40;99.90;;;;;;5005686;28;20038;-70
2021/08/19 11:02:38;;;;;;;4.70;2.63;;;27.50;99.90;;;;;;5011600;28;20025;-69
2021/08/19 11:05:05;;;;;;;5.50;3.25;;;27.40;99.40;;;;;;5011368;28;20026;-70
2021/08/19 11:07:50;;;;;;;3.13;2.85;;;27.40;99.10;;;;;;5010317;28;20025;-68
2021/08/19 11:10:30;;;;;;;6.00;3.03;;;27.60;99.70;;;;;;5012800;28;20026;-69
2021/08/19 11:13:03;;;;;;;3.38;2.60;;;27.40;99.90;;;;;;5014201;28;20022;-70
2021/08/19 11:15:30;;;;;;;5.07;3.50;;;27.40;99.90;;;;;;5016956;28;20531;-69
2021/08/19 11:17:58;;;;;;;5.90;2.70;;;27.40;99.90;;;;;;5009169;28;20025;-69
2021/08/19 11:20:29;;;;;;;3.72;3.33;;;27.40;99.90;;;;;;5010506;28;20030;-69
2021/08/19 11:23:11;;;;;;;3.42;3.08;;;27.40;99.00;;;;;;5010618;28;20066;-68
2021/08/19 11:25:40;;;;;;;3.47;3.10;;;27.40;99.30;;;;;;5011272;28;20121;-68
2021/08/19 11:28:14;;;;;;;3.58;3.28;;;27.30;99.90;;;;;;5011697;28;20104;-68
2021/08/19 11:30:44;;;;;;;4.18;2.72;;;27.30;99.90;;;;;;5010708;28;20439;-69
2021/08/19 11:33:17;;;;;;;3.65;3.35;;;27.50;99.90;;;;;;5011280;28;20030;-69
2021/08/19 11:35:47;;;;;;;4.43;3.25;;;27.40;98.60;;;;;;5011867;28;20025;-70
2021/08/19 11:38:14;;;;;;;8.50;3.95;;;27.40;99.90;;;;;;5016410;28;20053;-69
2021/08/19 11:40:42;;;;;;;3.40;3.10;;;27.40;98.80;;;;;;5016721;28;20451;-70
2021/08/19 11:43:31;;;;;;;2.90;2.70;;;27.50;98.40;;;;;;5016187;28;20047;-69
2021/08/19 11:46:05;;;;;;;3.40;3.10;;;27.70;98.80;;;;;;5016619;28;20033;-71
2021/08/19 11:48:32;;;;;;;3.80;3.22;;;27.80;98.70;;;;;;5015770;28;20053;-70
2021/08/19 11:50:59;;;;;;;3.30;2.90;;;27.70;99.10;;;;;;5016927;28;20022;-69
2021/08/19 11:53:26;;;;;;;4.03;3.15;;;27.70;99.90;;;;;;5017272;28;20061;-71
2021/08/19 11:55:53;;;;;;;3.50;3.17;;;27.70;99.90;;;;;;5016408;28;20376;-69
2021/08/19 11:58:25;;;;;;;3.97;3.42;;;27.50;99.90;;;;;;5016031;28;20361;-69
2021/08/19 12:01:05;;;;;;;3.47;2.42;;;27.40;99.90;;;;;;5017344;28;20026;-71
2021/08/19 12:03:39;;;;;;;5.40;3.25;;;27.40;99.90;;;;;;5017247;28;20052;-71
2021/08/19 12:06:13;;;;;;;4.00;2.55;;;27.40;99.90;;;;;;5017200;28;20018;-70
2021/08/19 12:08:47;;;;;;;3.17;2.78;;;27.60;99.90;;;;;;5015368;28;20121;-69
2021/08/19 12:11:25;;;;;;;3.38;3.03;;;27.60;99.90;;;;;;5017010;28;20100;-70
2021/08/19 12:13:53;;;;;;;5.28;3.85;;;27.70;99.90;;;;;;5015291;28;20026;-70
2021/08/19 12:16:25;;;;;;;2.80;2.60;;;27.60;99.90;;;;;;5015523;28;20041;-70
2021/08/19 12:19:09;;;;;;;6.50;3.60;;;27.60;99.90;;;;;;5016547;28;20036;-70
2021/08/19 12:21:40;;;;;;;3.85;3.25;;;27.60;99.90;;;;;;5015371;28;20465;-70
2021/08/19 12:24:12;;;;;;;4.80;3.20;;;27.50;99.90;;;;;;5016533;28;20099;-70
2021/08/19 12:26:38;;;;;;;4.07;3.45;;;27.50;99.90;;;;;;5015324;28;20030;-70
2021/08/19 12:29:04;;;;;;;6.22;3.33;;;27.80;99.90;;;;;;5015616;28;20029;-71
2021/08/19 12:31:48;;;;;;;3.40;3.10;;;27.90;99.80;;;;;;5015187;28;20546;-72
2021/08/19 12:34:14;;;;;;;3.10;2.85;;;27.90;99.10;;;;;;5016941;28;20029;-69
2021/08/19 12:36:40;;;;;;;4.53;2.97;;;28.00;99.00;;;;;;5016419;28;20022;-70
2021/08/19 12:39:18;;;;;;;3.05;2.83;;;28.10;98.40;;;;;;5016176;28;20446;-70
2021/08/19 12:41:44;;;;;;;5.57;2.90;;;28.20;99.30;;;;;;5014933;28;20057;-70
2021/08/19 12:44:12;;;;;;;6.03;3.35;;;28.20;98.60;;;;;;5014774;28;20079;-70
2021/08/19 12:46:38;;;;;;;4.38;2.58;;;28.30;99.90;;;;;;5014711;28;20499;-70
2021/08/19 12:49:27;;;;;;;4.93;3.22;;;28.50;99.90;;;;;;5010574;28;20026;-69
2021/08/19 12:52:15;;;;;;;3.50;3.20;;;28.50;99.30;;;;;;5011225;28;20069;-70
2021/08/19 12:55:12;;;;;;;5.43;3.00;;;28.50;99.90;;;;;;5013057;28;20018;-70